Tutti
RAAF Richmond Airport (Richmond, New South Wales) XRH Meteo
|
Richmond, New South Wales (XRH / YSRI)
Cielo sereno
Venti leggeri |
|
14 °C |
Previsione area Terminal XRH
| Here is the undecoded forecast: 2026/09/01 17:06 YSRI 011706Z 0118/0218 01005KT CAVOK BECMG 0122/0200 34012KT CAVOK FM020300 29012KT CAVOK FM020900 30003KT CAVOK RMK FM011800 SEV TURB BLW 5000FT TL012200 FM012200 MOD TURB BLW 5000FT TL020000 FM020900 MOD TURB BLW 5000FT TL021700 FM021700 SEV TURB BLW 5000FT T 14 16 23 27 Q 1015 1016 1016 1013 |
Storico METAR XRH recente
| Date | Time (AEST) | Flight Rules | Wind Dir. | Speed | Type | Height AGL (ft) | Visibility | Temp (°C) | Temp (°F) | Dew Point (°C) | Dew Point (°F) | Rel. Humid. | Pressure | Density Altitude | Remarks |
|---|---|---|---|---|---|---|---|---|---|---|---|---|---|---|---|
| 02-set | 03:00 | VFR | 20° | 5 kt | 10000 meters | 14° | 57° | 8° | 46° | 67% | 1016 mb | -135 ft | |||
| 02-set | 02:30 | VFR | 190° | 3 kt | 10000 meters | 12° | 53° | 8° | 46° | 76% | 1016 mb | -375 ft | |||
| 02-set | 02:00 | VFR | 70° | 4 kt | 10000 meters | 14° | 57° | 8° | 46° | 67% | 1017 mb | -165 ft | |||
| 02-set | 01:30 | VFR | 50° | 6 kt | 10000 meters | 14° | 57° | 8° | 46° | 67% | 1017 mb | -165 ft | |||
| 02-set | 01:00 | VFR | 40° | 8 kt | 10000 meters | 13° | 55° | 8° | 46° | 72% | 1017 mb | -285 ft | |||
| 02-set | 00:30 | VFR | 50° | 4 kt | 10000 meters | 14° | 57° | 8° | 46° | 67% | 1018 mb | -195 ft | |||
| 02-set | 00:00 | VFR | 360° | 4 kt | 10000 meters | 16° | 60° | 8° | 46° | 59% | 1018 mb | 45 ft | |||
| 01-set | 23:30 | VFR | 60° | 5 kt | 10000 meters | 15° | 59° | 8° | 46° | 63% | 1018 mb | -75 ft | |||
| 01-set | 23:00 | VFR | 50° | 6 kt | 10000 meters | 15° | 59° | 8° | 46° | 63% | 1018 mb | -75 ft | |||
| 01-set | 22:30 | VFR | 10° | 5 kt | 10000 meters | 16° | 60° | 8° | 46° | 59% | 1018 mb | 45 ft | |||
| 01-set | 22:00 | VFR | 30° | 7 kt | 10000 meters | 16° | 60° | 8° | 46° | 59% | 1018 mb | 45 ft | |||
| 01-set | 21:30 | VFR | 30° | 5 kt | 10000 meters | 15° | 59° | 8° | 46° | 63% | 1019 mb | -104 ft | |||
| 01-set | 21:00 | VFR | 20° | 4 kt | 10000 meters | 14° | 57° | 7° | 44° | 63% | 1019 mb | -224 ft | |||
| 01-set | 20:30 | VFR | Calm | 10000 meters | 15° | 59° | 7° | 44° | 59% | 1020 mb | -134 ft | ||||
| 01-set | 20:00 | VFR | 330° | 1 kt | 10000 meters | 15° | 59° | 7° | 44° | 59% | 1020 mb | -134 ft | |||
| 01-set | 19:30 | VFR | 310° | 3 kt | 10000 meters | 17° | 62° | 7° | 44° | 52% | 1020 mb | 106 ft | |||
| 01-set | 19:00 | VFR | Calm | 10000 meters | 17° | 62° | 7° | 44° | 52% | 1019 mb | 136 ft | ||||
| 01-set | 18:30 | VFR | 300° | 4 kt | 10000 meters | 20° | 68° | 6° | 42° | 40% | 1019 mb | 496 ft | |||
| 01-set | 18:00 | VFR | 300° | 6 kt | 10000 meters | 21° | 69° | 6° | 42° | 38% | 1019 mb | 616 ft | |||
| 01-set | 17:30 | VFR | 280° | 6 kt | 10000 meters | 22° | 71° | 6° | 42° | 35% | 1019 mb | 736 ft | |||
| 01-set | 17:00 | VFR | 270° | 11 kt | 10000 meters | 24° | 75° | 6° | 42° | 31% | 1019 mb | 976 ft | |||
| 01-set | 16:30 | VFR | 270° | 11 kt | 10000 meters | 25° | 77° | 6° | 42° | 30% | 1019 mb | 1.096 ft | |||
| 01-set | 16:00 | VFR | 280° | 11 kt | 10000 meters | 26° | 78° | 6° | 42° | 28% | 1018 mb | 1.245 ft | |||
| 01-set | 15:30 | VFR | 300° | 10 kt | 10000 meters | 26° | 78° | 5° | 41° | 26% | 1019 mb | 1.216 ft |
Accedi
| Il tuo browser non è supportato. fai l'upgrade del tuo browser |
